Time;durP1;ratioP1;P1;durP2;ratioP2;P2;SDS_P1;SDS_P2;PMS_P1;PMS_P2;Temp;Humidity;BMP_temperature;BMP_pressure;BME280_temperature;BME280_humidity;BME280_pressure;Samples;Min_cycle;Max_cycle;Signal;HPM_P1;HPM_P2
2023/08/19 00:00:59;;;;;;;;;;;23.80;1.00;;;;;;4921795;29;19978;-50
2023/08/19 00:03:26;;;;;;;;;;;23.80;1.00;;;;;;4921751;29;19929;-52
2023/08/19 00:08:41;;;;;;;;;;;23.80;1.00;;;;;;4991305;23;19954;-50
2023/08/19 00:11:08;;;;;;;;;;;23.80;1.00;;;;;;4940646;29;19922;-52
2023/08/19 00:13:34;;;;;;;;;;;23.80;1.00;;;;;;4940812;29;19927;-50
2023/08/19 00:16:01;;;;;;;;;;;23.80;1.00;;;;;;4940489;29;19923;-49
2023/08/19 00:18:28;;;;;;;;;;;23.80;1.00;;;;;;4923565;29;20035;-46
2023/08/19 00:20:55;;;;;;;;;;;23.80;1.00;;;;;;4936695;29;19937;-47
2023/08/19 00:23:23;;;;;;;;;;;23.80;1.00;;;;;;4937259;29;19923;-49
2023/08/19 00:25:49;;;;;;;;;;;23.80;1.00;;;;;;4937613;29;19973;-51
2023/08/19 00:28:16;;;;;;;;;;;23.80;1.00;;;;;;4937837;29;20290;-48
2023/08/19 00:30:43;;;;;;;;;;;23.80;1.00;;;;;;4937448;29;19966;-51
2023/08/19 00:33:10;;;;;;;;;;;23.80;1.00;;;;;;4920511;29;19923;-47
2023/08/19 00:35:38;;;;;;;;;;;23.80;1.00;;;;;;4904685;29;20279;-52
2023/08/19 00:38:11;;;;;;;;;;;23.80;1.00;;;;;;4920527;29;20379;-49
2023/08/19 00:40:38;;;;;;;;;;;23.80;1.00;;;;;;4918502;29;19946;-51
2023/08/19 00:43:05;;;;;;;;;;;23.80;1.00;;;;;;4920196;29;20025;-51
2023/08/19 00:45:32;;;;;;;;;;;23.80;1.00;;;;;;4920175;29;20018;-48
2023/08/19 00:47:59;;;;;;;;;;;23.80;1.00;;;;;;4920289;29;19923;-52
2023/08/19 00:50:26;;;;;;;;;;;23.80;1.00;;;;;;4920101;29;19923;-47
2023/08/19 00:52:54;;;;;;;;;;;23.80;1.00;;;;;;4937007;29;19929;-50
2023/08/19 00:55:21;;;;;;;;;;;23.80;1.00;;;;;;4919996;29;19978;-47
2023/08/19 00:57:48;;;;;;;;;;;23.80;1.00;;;;;;4937032;29;19923;-48
2023/08/19 01:00:15;;;;;;;;;;;23.80;1.00;;;;;;4937111;29;19923;-48
2023/08/19 01:02:42;;;;;;;;;;;23.80;1.00;;;;;;4936805;29;19922;-46
2023/08/19 01:05:09;;;;;;;;;;;23.80;1.00;;;;;;4936896;29;19930;-48
2023/08/19 01:07:40;;;;;;;;;;;23.80;1.00;;;;;;4936716;29;19930;-50
2023/08/19 01:10:11;;;;;;;;;;;23.80;1.00;;;;;;4981623;23;19970;-46
2023/08/19 01:12:48;;;;;;;;;;;23.80;1.00;;;;;;4917784;29;19979;-49
2023/08/19 01:15:21;;;;;;;;;;;23.80;1.00;;;;;;4916622;29;19971;-47
2023/08/19 01:17:48;;;;;;;;;;;23.80;1.00;;;;;;4916476;29;19931;-48
2023/08/19 01:20:16;;;;;;;;;;;23.80;1.00;;;;;;4917666;29;19930;-50
2023/08/19 01:22:42;;;;;;;;;;;23.80;1.00;;;;;;4916218;29;19978;-48
2023/08/19 01:25:10;;;;;;;;;;;23.80;1.00;;;;;;4916275;29;20018;-46
2023/08/19 01:27:36;;;;;;;;;;;23.80;1.00;;;;;;4917321;29;20018;-48
2023/08/19 01:30:04;;;;;;;;;;;23.80;1.00;;;;;;4917666;29;19927;-46
2023/08/19 01:32:31;;;;;;;;;;;23.80;1.00;;;;;;4915755;29;19931;-47
2023/08/19 01:34:58;;;;;;;;;;;23.80;1.00;;;;;;4917554;29;19990;-46
2023/08/19 01:37:37;;;;;;;;;;;23.80;1.00;;;;;;4909627;29;20010;-46
2023/08/19 01:40:05;;;;;;;;;;;23.80;1.00;;;;;;4910027;29;19979;-46
2023/08/19 01:42:32;;;;;;;;;;;23.80;1.00;;;;;;4906532;29;19949;-49
2023/08/19 01:45:00;;;;;;;;;;;23.80;1.00;;;;;;4917152;29;20307;-52
2023/08/19 01:47:27;;;;;;;;;;;23.80;1.00;;;;;;4916260;29;19970;-51
2023/08/19 01:49:53;;;;;;;;;;;23.80;1.00;;;;;;4915650;29;19923;-49
2023/08/19 01:52:20;;;;;;;;;;;23.80;1.00;;;;;;4917218;29;19971;-46
2023/08/19 01:54:48;;;;;;;;;;;23.80;1.00;;;;;;4900100;29;19930;-50
2023/08/19 01:57:15;;;;;;;;;;;23.80;1.00;;;;;;4917139;29;19994;-49
2023/08/19 01:59:41;;;;;;;;;;;23.80;1.00;;;;;;4915685;29;19923;-52
2023/08/19 02:02:08;;;;;;;;;;;23.80;1.00;;;;;;4915598;29;20014;-46
2023/08/19 02:04:35;;;;;;;;;;;23.80;1.00;;;;;;4915403;29;19927;-52
2023/08/19 02:07:02;;;;;;;;;;;23.80;1.00;;;;;;4915567;29;19923;-47
2023/08/19 02:09:29;;;;;;;;;;;23.80;1.00;;;;;;4916682;29;19923;-52
2023/08/19 02:11:56;;;;;;;;;;;23.70;1.00;;;;;;5544478;23;19979;-45
2023/08/19 02:14:23;;;;;;;;;;;23.80;1.00;;;;;;4895437;29;20269;-48
2023/08/19 02:16:49;;;;;;;;;;;23.70;1.00;;;;;;4911954;29;19946;-51
2023/08/19 02:19:16;;;;;;;;;;;23.70;1.00;;;;;;4897813;29;19924;-47
2023/08/19 02:21:43;;;;;;;;;;;23.80;1.00;;;;;;4897562;29;19924;-52
2023/08/19 02:24:10;;;;;;;;;;;23.80;1.00;;;;;;4897702;29;20370;-47
2023/08/19 02:26:36;;;;;;;;;;;23.70;1.00;;;;;;4880638;29;19929;-46
2023/08/19 02:29:03;;;;;;;;;;;23.80;1.00;;;;;;4897507;29;20033;-50
2023/08/19 02:31:30;;;;;;;;;;;23.80;1.00;;;;;;4880641;29;20462;-49
2023/08/19 02:33:57;;;;;;;;;;;23.80;1.00;;;;;;4897603;29;20383;-46
2023/08/19 02:36:24;;;;;;;;;;;23.70;1.00;;;;;;4897647;29;20277;-49
2023/08/19 02:38:51;;;;;;;;;;;23.80;1.00;;;;;;4880515;29;19923;-46
2023/08/19 02:41:18;;;;;;;;;;;23.70;1.00;;;;;;4897348;29;19946;-47
2023/08/19 02:43:44;;;;;;;;;;;23.80;1.00;;;;;;5207776;23;19932;-45
2023/08/19 02:46:11;;;;;;;;;;;23.70;1.00;;;;;;4880755;29;20021;-52
2023/08/19 02:48:38;;;;;;;;;;;23.80;1.00;;;;;;4897492;29;19945;-48
2023/08/19 02:51:04;;;;;;;;;;;23.80;1.00;;;;;;4897107;29;20391;-48
2023/08/19 02:53:31;;;;;;;;;;;23.70;1.00;;;;;;4880478;29;19959;-49
2023/08/19 02:55:58;;;;;;;;;;;23.70;1.00;;;;;;4897206;29;19995;-47
2023/08/19 02:58:25;;;;;;;;;;;23.70;1.00;;;;;;4880586;29;20367;-46
2023/08/19 03:00:52;;;;;;;;;;;23.70;1.00;;;;;;4880025;29;20384;-49
2023/08/19 03:03:19;;;;;;;;;;;23.80;1.00;;;;;;4880346;29;20055;-49
2023/08/19 03:05:46;;;;;;;;;;;23.70;1.00;;;;;;4878977;29;19962;-52
2023/08/19 03:08:13;;;;;;;;;;;23.70;1.00;;;;;;4873978;29;20376;-49
2023/08/19 03:10:40;;;;;;;;;;;23.70;1.00;;;;;;4880217;29;19924;-53
2023/08/19 03:13:07;;;;;;;;;;;23.70;1.00;;;;;;4896922;29;19928;-53
2023/08/19 03:18:23;;;;;;;;;;;23.80;1.00;;;;;;4892838;23;20307;-48
2023/08/19 03:20:56;;;;;;;;;;;23.70;1.00;;;;;;4878164;29;19924;-46
2023/08/19 03:23:25;;;;;;;;;;;23.70;1.00;;;;;;4861670;29;19958;-52
2023/08/19 03:25:52;;;;;;;;;;;23.70;1.00;;;;;;4861415;29;19930;-45
2023/08/19 03:28:19;;;;;;;;;;;23.70;1.00;;;;;;4861744;29;19984;-46
2023/08/19 03:30:45;;;;;;;;;;;23.80;1.00;;;;;;4861421;29;20440;-48
2023/08/19 03:33:12;;;;;;;;;;;23.70;1.00;;;;;;4878399;29;19995;-47
2023/08/19 03:35:39;;;;;;;;;;;23.70;1.00;;;;;;4861513;29;19995;-50
2023/08/19 03:38:08;;;;;;;;;;;23.70;1.00;;;;;;4861511;29;20011;-48
2023/08/19 03:40:36;;;;;;;;;;;23.70;1.00;;;;;;4861591;29;19931;-47
2023/08/19 03:43:04;;;;;;;;;;;23.70;1.00;;;;;;4861154;29;19927;-49
2023/08/19 03:45:32;;;;;;;;;;;23.70;1.00;;;;;;4861405;29;19934;-51
2023/08/19 03:47:59;;;;;;;;;;;23.70;1.00;;;;;;4878159;29;19923;-48
2023/08/19 03:50:26;;;;;;;;;;;23.70;1.00;;;;;;4983610;23;20025;-49
2023/08/19 03:52:53;;;;;;;;;;;23.70;1.00;;;;;;4896537;29;19924;-48
2023/08/19 03:55:19;;;;;;;;;;;23.70;1.00;;;;;;4882607;29;19923;-47
2023/08/19 03:57:46;;;;;;;;;;;23.70;1.00;;;;;;4883295;29;19923;-51
2023/08/19 04:00:13;;;;;;;;;;;23.70;1.00;;;;;;4900467;29;19962;-47
2023/08/19 04:02:40;;;;;;;;;;;23.70;1.00;;;;;;4892822;29;19931;-51
2023/08/19 04:05:08;;;;;;;;;;;23.70;1.00;;;;;;4883136;29;19923;-49
2023/08/19 04:07:35;;;;;;;;;;;23.70;1.00;;;;;;4892454;29;19937;-49
2023/08/19 04:10:03;;;;;;;;;;;23.70;1.00;;;;;;4889850;29;20050;-48
2023/08/19 04:12:30;;;;;;;;;;;23.70;1.00;;;;;;4878299;29;19923;-48
2023/08/19 04:14:57;;;;;;;;;;;23.70;1.00;;;;;;4883238;29;19927;-49
2023/08/19 04:17:24;;;;;;;;;;;23.70;1.00;;;;;;4900022;29;19923;-51
2023/08/19 04:19:51;;;;;;;;;;;23.70;1.00;;;;;;4916963;23;19923;-49
2023/08/19 04:22:18;;;;;;;;;;;23.70;1.00;;;;;;4917538;29;19929;-47
2023/08/19 04:24:52;;;;;;;;;;;23.70;1.00;;;;;;4901548;29;19938;-48
2023/08/19 04:27:19;;;;;;;;;;;23.70;1.00;;;;;;4918557;29;20303;-46
2023/08/19 04:29:46;;;;;;;;;;;23.70;1.00;;;;;;4901502;29;19923;-47
2023/08/19 04:32:15;;;;;;;;;;;23.70;1.00;;;;;;4901453;29;19930;-50
2023/08/19 04:34:42;;;;;;;;;;;23.70;1.00;;;;;;4901569;29;19930;-50
2023/08/19 04:37:09;;;;;;;;;;;23.70;1.00;;;;;;4916541;29;20009;-48
2023/08/19 04:39:38;;;;;;;;;;;23.70;1.00;;;;;;4901308;29;19923;-49
2023/08/19 04:42:13;;;;;;;;;;;23.70;1.00;;;;;;4901206;29;19924;-50
2023/08/19 04:44:40;;;;;;;;;;;23.70;1.00;;;;;;4901301;29;19923;-51
2023/08/19 04:47:07;;;;;;;;;;;23.70;1.00;;;;;;4901289;29;19978;-48
2023/08/19 04:49:36;;;;;;;;;;;23.70;1.00;;;;;;4967879;23;20371;31
2023/08/19 04:52:05;;;;;;;;;;;23.70;1.00;;;;;;4895255;29;20006;-50
2023/08/19 04:54:32;;;;;;;;;;;23.70;1.00;;;;;;4898142;29;19958;-52
2023/08/19 04:56:59;;;;;;;;;;;23.70;1.00;;;;;;4897908;29;19929;-48
2023/08/19 04:59:26;;;;;;;;;;;23.70;1.00;;;;;;4897992;29;19927;-48
2023/08/19 05:01:52;;;;;;;;;;;23.70;1.00;;;;;;4898930;29;19931;-50
2023/08/19 05:04:19;;;;;;;;;;;23.70;1.00;;;;;;4897844;29;19974;-46
2023/08/19 05:06:47;;;;;;;;;;;23.70;1.00;;;;;;4897254;29;20409;-46
2023/08/19 05:09:14;;;;;;;;;;;23.70;1.00;;;;;;4897785;29;19969;-48
2023/08/19 05:11:41;;;;;;;;;;;23.70;1.00;;;;;;4897767;29;19923;-46
2023/08/19 05:14:09;;;;;;;;;;;23.70;1.00;;;;;;4897977;29;20296;-46
2023/08/19 05:16:36;;;;;;;;;;;23.70;1.00;;;;;;4897389;29;19927;-49
2023/08/19 05:19:05;;;;;;;;;;;23.70;1.00;;;;;;4897748;29;20407;-48
2023/08/19 05:21:32;;;;;;;;;;;23.70;1.00;;;;;;5340819;23;20272;-45
2023/08/19 05:24:00;;;;;;;;;;;23.70;1.00;;;;;;4900589;29;19927;-47
2023/08/19 05:26:27;;;;;;;;;;;23.70;1.00;;;;;;4900435;29;19923;-48
2023/08/19 05:28:53;;;;;;;;;;;23.70;1.00;;;;;;4917351;29;19923;-52
2023/08/19 05:31:20;;;;;;;;;;;23.70;1.00;;;;;;4917418;29;19935;-49
2023/08/19 05:33:47;;;;;;;;;;;23.70;1.00;;;;;;4917477;29;20030;-50
2023/08/19 05:36:14;;;;;;;;;;;23.70;1.00;;;;;;4917405;29;20292;-47
2023/08/19 05:38:40;;;;;;;;;;;23.70;1.00;;;;;;4917355;29;19927;-47
2023/08/19 05:41:07;;;;;;;;;;;23.70;1.00;;;;;;4916961;29;20299;-45
2023/08/19 05:43:34;;;;;;;;;;;23.70;1.00;;;;;;4917475;29;20398;-47
2023/08/19 05:46:03;;;;;;;;;;;23.70;1.00;;;;;;4917168;29;20026;-46
2023/08/19 05:48:30;;;;;;;;;;;23.70;1.00;;;;;;4917144;29;20340;-51
2023/08/19 05:50:57;;;;;;;;;;;23.70;1.00;;;;;;4916894;29;19923;-47
2023/08/19 05:53:24;;;;;;;;;;;23.70;1.00;;;;;;5103017;23;19947;-51
2023/08/19 05:55:50;;;;;;;;;;;23.70;1.00;;;;;;4921478;29;19962;-49
2023/08/19 05:58:17;;;;;;;;;;;23.70;1.00;;;;;;4916925;29;20418;-46
2023/08/19 06:00:44;;;;;;;;;;;23.70;1.00;;;;;;4917096;29;20019;-46
2023/08/19 06:03:11;;;;;;;;;;;23.70;1.00;;;;;;4916734;29;19923;-47
2023/08/19 06:05:38;;;;;;;;;;;23.70;1.00;;;;;;4916860;29;19923;-48
2023/08/19 06:08:05;;;;;;;;;;;23.70;1.00;;;;;;4916935;29;19929;-52
2023/08/19 06:10:31;;;;;;;;;;;23.70;1.00;;;;;;4900010;29;19930;-46
2023/08/19 06:12:58;;;;;;;;;;;23.70;1.00;;;;;;4916443;29;20009;-51
2023/08/19 06:15:25;;;;;;;;;;;23.70;1.00;;;;;;4916848;29;20422;-50
2023/08/19 06:17:51;;;;;;;;;;;23.70;1.00;;;;;;4915609;29;19930;-49
2023/08/19 06:20:18;;;;;;;;;;;23.70;1.00;;;;;;4916609;29;19923;-46
2023/08/19 06:22:45;;;;;;;;;;;23.70;1.00;;;;;;4916523;29;19923;-45
2023/08/19 06:25:12;;;;;;;;;;;23.70;1.00;;;;;;4912513;29;19923;-52
2023/08/19 06:27:39;;;;;;;;;;;23.70;1.00;;;;;;4916686;29;20264;-46
2023/08/19 06:30:06;;;;;;;;;;;23.70;1.00;;;;;;4915180;29;19923;-47
2023/08/19 06:32:33;;;;;;;;;;;23.70;1.00;;;;;;4896237;29;20340;-49
2023/08/19 06:35:00;;;;;;;;;;;23.70;1.00;;;;;;4898609;29;19957;-47
2023/08/19 06:37:29;;;;;;;;;;;23.70;1.00;;;;;;4900172;29;20463;-47
2023/08/19 06:39:57;;;;;;;;;;;23.70;1.00;;;;;;4916332;29;19945;-51
2023/08/19 06:42:25;;;;;;;;;;;23.70;1.00;;;;;;4916130;29;19923;-48
2023/08/19 06:44:52;;;;;;;;;;;23.70;1.00;;;;;;4899410;29;19923;-47
2023/08/19 06:47:20;;;;;;;;;;;23.70;1.00;;;;;;4916248;29;20410;-46
2023/08/19 06:49:50;;;;;;;;;;;23.70;1.00;;;;;;4901546;29;19980;-48
2023/08/19 06:52:17;;;;;;;;;;;23.70;1.00;;;;;;4915412;29;20004;-47
2023/08/19 06:54:44;;;;;;;;;;;23.80;1.00;;;;;;5014227;23;19970;-47
2023/08/19 06:57:19;;;;;;;;;;;23.70;1.00;;;;;;4897101;29;19924;-47
2023/08/19 06:59:47;;;;;;;;;;;23.70;1.00;;;;;;4885624;29;20341;-47
2023/08/19 07:02:15;;;;;;;;;;;23.80;1.00;;;;;;4866899;29;19944;-47
2023/08/19 07:04:44;;;;;;;;;;;23.80;1.00;;;;;;4883329;29;20027;-47
2023/08/19 07:07:11;;;;;;;;;;;23.80;1.00;;;;;;4890478;29;20380;-49
2023/08/19 07:09:38;;;;;;;;;;;23.80;1.00;;;;;;4874460;29;19951;-52
2023/08/19 07:12:05;;;;;;;;;;;23.80;1.00;;;;;;4882787;29;19923;-48
2023/08/19 07:14:33;;;;;;;;;;;23.80;1.00;;;;;;4877885;29;19930;-47
2023/08/19 07:17:02;;;;;;;;;;;23.80;1.00;;;;;;4877960;29;20350;-53
2023/08/19 07:19:39;;;;;;;;;;;23.80;1.00;;;;;;4887618;29;20428;-47
2023/08/19 07:22:06;;;;;;;;;;;23.80;1.00;;;;;;4880036;29;19923;-52
2023/08/19 07:24:33;;;;;;;;;;;23.80;1.00;;;;;;4878715;29;19924;-47
2023/08/19 07:27:01;;;;;;;;;;;23.80;1.00;;;;;;4879674;29;19924;-50
2023/08/19 07:29:28;;;;;;;;;;;23.80;1.00;;;;;;4878962;29;20303;-47
2023/08/19 07:31:56;;;;;;;;;;;23.80;1.00;;;;;;4881791;29;20372;-50
2023/08/19 07:34:23;;;;;;;;;;;23.80;1.00;;;;;;4881405;29;19989;-47
2023/08/19 07:36:52;;;;;;;;;;;23.80;1.00;;;;;;4881592;29;20483;-48
2023/08/19 07:39:19;;;;;;;;;;;23.80;1.00;;;;;;4886844;29;19924;-47
2023/08/19 07:41:46;;;;;;;;;;;23.80;1.00;;;;;;4887228;29;19971;-47
2023/08/19 07:44:13;;;;;;;;;;;23.80;1.00;;;;;;4881096;29;19927;-46
2023/08/19 07:46:40;;;;;;;;;;;23.90;1.00;;;;;;4875695;29;19924;-45
2023/08/19 07:52:18;;;;;;;;;;;23.90;1.00;;;;;;4898770;29;19929;-46
2023/08/19 07:54:45;;;;;;;;;;;23.80;1.00;;;;;;4900173;29;19979;-46
2023/08/19 07:57:13;;;;;;;;;;;23.90;1.00;;;;;;5284094;23;20417;-45
2023/08/19 07:59:40;;;;;;;;;;;23.90;1.00;;;;;;4937894;29;19923;-48
2023/08/19 08:02:07;;;;;;;;;;;23.90;1.00;;;;;;4921112;29;20009;-52
2023/08/19 08:04:34;;;;;;;;;;;23.90;1.00;;;;;;4937364;29;20331;-48
2023/08/19 08:07:00;;;;;;;;;;;23.90;1.00;;;;;;4919328;29;19934;-52
2023/08/19 08:09:27;;;;;;;;;;;23.80;1.00;;;;;;4918952;29;19923;-46
2023/08/19 08:11:54;;;;;;;;;;;23.90;1.00;;;;;;4918876;29;19981;-47
2023/08/19 08:14:21;;;;;;;;;;;23.80;1.00;;;;;;4918745;29;19949;-46
2023/08/19 08:16:48;;;;;;;;;;;23.90;1.00;;;;;;4918767;29;19923;-48
2023/08/19 08:19:14;;;;;;;;;;;23.90;1.00;;;;;;4918894;29;20224;-46
2023/08/19 08:21:41;;;;;;;;;;;23.90;1.00;;;;;;4906090;29;19934;-49
2023/08/19 08:24:08;;;;;;;;;;;23.90;1.00;;;;;;4915368;29;19923;-53
2023/08/19 08:26:34;;;;;;;;;;;23.90;1.00;;;;;;4911390;29;19927;-53
2023/08/19 08:29:02;;;;;;;;;;;23.90;1.00;;;;;;5326007;23;20843;-48
2023/08/19 08:31:29;;;;;;;;;;;23.90;1.00;;;;;;4900969;29;20014;-46
2023/08/19 08:33:57;;;;;;;;;;;23.90;1.00;;;;;;4891449;29;19956;-53
2023/08/19 08:36:24;;;;;;;;;;;23.90;1.00;;;;;;4900083;29;19953;-51
2023/08/19 08:38:50;;;;;;;;;;;23.90;1.00;;;;;;4889613;29;19974;-52
2023/08/19 08:41:18;;;;;;;;;;;23.90;1.00;;;;;;4887429;29;19924;-51
2023/08/19 08:43:46;;;;;;;;;;;23.90;1.00;;;;;;4889036;29;19970;-50
2023/08/19 08:46:13;;;;;;;;;;;23.90;1.00;;;;;;4886923;29;20023;-52
2023/08/19 08:48:41;;;;;;;;;;;23.90;1.00;;;;;;4888152;29;19932;-49
2023/08/19 08:51:08;;;;;;;;;;;23.90;1.00;;;;;;4882932;29;19928;-48
2023/08/19 08:53:35;;;;;;;;;;;23.90;1.00;;;;;;4891566;29;19923;-53
2023/08/19 08:56:03;;;;;;;;;;;23.90;1.00;;;;;;4901916;29;20384;-49
2023/08/19 08:58:29;;;;;;;;;;;23.90;1.00;;;;;;4903492;29;20303;-48
2023/08/19 09:03:53;;;;;;;;;;;23.90;1.00;;;;;;5018919;23;19927;-51
2023/08/19 09:06:20;;;;;;;;;;;23.90;1.00;;;;;;4900392;29;20340;-48
2023/08/19 09:08:50;;;;;;;;;;;23.90;1.00;;;;;;4893110;29;19924;-52
2023/08/19 09:11:20;;;;;;;;;;;23.90;1.00;;;;;;4878911;29;19959;-50
2023/08/19 09:13:49;;;;;;;;;;;23.90;1.00;;;;;;4895625;29;19923;-52
2023/08/19 09:16:16;;;;;;;;;;;24.00;1.00;;;;;;4902377;29;19966;-53
2023/08/19 09:18:43;;;;;;;;;;;23.90;1.00;;;;;;4898593;29;20018;-47
2023/08/19 09:21:10;;;;;;;;;;;24.00;1.00;;;;;;4893497;29;19978;-47
2023/08/19 09:23:38;;;;;;;;;;;24.00;1.00;;;;;;4888408;29;19927;-49
2023/08/19 09:26:05;;;;;;;;;;;24.00;1.00;;;;;;4892256;29;20327;-50
2023/08/19 09:28:33;;;;;;;;;;;24.00;1.00;;;;;;4893287;29;19927;-48
2023/08/19 09:31:00;;;;;;;;;;;24.00;1.00;;;;;;4898733;29;19923;-47
2023/08/19 09:33:27;;;;;;;;;;;24.00;1.00;;;;;;4896535;29;20392;-49
2023/08/19 09:35:58;;;;;;;;;;;24.00;1.00;;;;;;4892015;29;20379;-50
2023/08/19 09:38:26;;;;;;;;;;;24.00;1.00;;;;;;4897350;29;20291;-45
2023/08/19 09:41:03;;;;;;;;;;;24.00;1.00;;;;;;4898353;29;19934;-51
2023/08/19 09:43:30;;;;;;;;;;;24.00;1.00;;;;;;4896058;29;20398;-49
2023/08/19 09:45:57;;;;;;;;;;;24.00;1.00;;;;;;4897464;29;20021;-49
2023/08/19 09:48:25;;;;;;;;;;;24.00;1.00;;;;;;4898371;29;20310;-50
2023/08/19 09:50:52;;;;;;;;;;;24.00;1.00;;;;;;4898076;29;20288;-51
2023/08/19 09:53:19;;;;;;;;;;;24.00;1.00;;;;;;4897085;29;19923;-47
2023/08/19 09:55:47;;;;;;;;;;;24.00;1.00;;;;;;4897393;29;20474;-55
2023/08/19 09:58:14;;;;;;;;;;;24.00;1.00;;;;;;4898170;29;19957;-54
2023/08/19 10:00:41;;;;;;;;;;;24.00;1.00;;;;;;4898149;29;19924;-57
2023/08/19 10:03:08;;;;;;;;;;;24.10;1.00;;;;;;4897929;29;20014;-56
2023/08/19 10:05:36;;;;;;;;;;;24.10;1.00;;;;;;5038488;23;19927;-55
2023/08/19 10:08:05;;;;;;;;;;;24.10;1.00;;;;;;4888545;29;20356;-54
2023/08/19 10:10:33;;;;;;;;;;;24.10;1.00;;;;;;4901984;29;19923;-53
2023/08/19 10:13:00;;;;;;;;;;;24.10;1.00;;;;;;4892810;29;19927;-54
2023/08/19 10:15:31;;;;;;;;;;;24.10;1.00;;;;;;4907669;29;19923;-54
2023/08/19 10:18:00;;;;;;;;;;;24.10;1.00;;;;;;4890670;29;19924;-56
2023/08/19 10:20:28;;;;;;;;;;;24.10;1.00;;;;;;4885768;29;19931;-53
2023/08/19 10:22:58;;;;;;;;;;;24.10;1.00;;;;;;4896335;29;19970;-57
2023/08/19 10:25:25;;;;;;;;;;;24.20;1.00;;;;;;4909615;29;19938;-55
2023/08/19 10:27:53;;;;;;;;;;;24.20;1.00;;;;;;4895072;29;19967;-57
2023/08/19 10:30:22;;;;;;;;;;;24.10;1.00;;;;;;4889045;29;20414;-56
2023/08/19 10:32:50;;;;;;;;;;;24.20;1.00;;;;;;4896454;29;19959;-56
2023/08/19 10:35:17;;;;;;;;;;;24.10;1.00;;;;;;4901309;23;20439;-58
2023/08/19 10:37:45;;;;;;;;;;;24.20;1.00;;;;;;4913120;29;20205;-58
2023/08/19 10:40:13;;;;;;;;;;;24.20;1.00;;;;;;4916089;29;20018;-57
2023/08/19 10:42:40;;;;;;;;;;;24.20;1.00;;;;;;4915933;29;19976;-56
2023/08/19 10:45:15;;;;;;;;;;;24.20;1.00;;;;;;4916164;29;19923;-56
2023/08/19 10:47:41;;;;;;;;;;;24.20;1.00;;;;;;4916232;29;19923;-57
2023/08/19 10:50:10;;;;;;;;;;;24.20;1.00;;;;;;4916566;29;20491;-57
2023/08/19 10:52:56;;;;;;;;;;;24.20;1.00;;;;;;4914875;29;19930;-56
2023/08/19 10:55:23;;;;;;;;;;;24.20;1.00;;;;;;4916065;29;20383;-57
2023/08/19 10:57:50;;;;;;;;;;;24.20;1.00;;;;;;4916198;29;19930;-54
2023/08/19 11:00:21;;;;;;;;;;;24.20;1.00;;;;;;4908456;29;19930;-58
2023/08/19 11:02:48;;;;;;;;;;;24.20;1.00;;;;;;4904625;29;20362;-56
2023/08/19 11:08:07;;;;;;;;;;;24.30;1.00;;;;;;5110322;23;19986;-58
2023/08/19 11:10:34;;;;;;;;;;;24.30;1.00;;;;;;4932158;29;19926;-55
2023/08/19 11:13:01;;;;;;;;;;;24.30;1.00;;;;;;4934928;29;19923;-56
2023/08/19 11:15:28;;;;;;;;;;;24.30;1.00;;;;;;4927264;29;19923;-57
2023/08/19 11:17:54;;;;;;;;;;;24.30;1.00;;;;;;4915901;29;20366;-56
2023/08/19 11:20:27;;;;;;;;;;;24.30;1.00;;;;;;4915826;29;19923;-57
2023/08/19 11:22:54;;;;;;;;;;;24.30;1.00;;;;;;4892813;29;19934;-58
2023/08/19 11:25:21;;;;;;;;;;;24.30;1.00;;;;;;4915856;29;19930;-58
2023/08/19 11:27:48;;;;;;;;;;;24.30;1.00;;;;;;4914878;29;19955;-56
2023/08/19 11:30:19;;;;;;;;;;;24.30;1.00;;;;;;4915734;29;19923;-57
2023/08/19 11:32:48;;;;;;;;;;;24.30;1.00;;;;;;4915009;29;20299;-55
2023/08/19 11:35:15;;;;;;;;;;;24.30;1.00;;;;;;4900925;29;19987;-54
2023/08/19 11:37:42;;;;;;;;;;;24.30;1.00;;;;;;4885695;29;19923;-53
2023/08/19 11:40:09;;;;;;;;;;;24.30;1.00;;;;;;5334763;23;19963;-57
2023/08/19 11:43:04;;;;;;;;;;;24.30;1.00;;;;;;4908564;29;20013;-55
2023/08/19 11:45:35;;;;;;;;;;;24.30;1.00;;;;;;4913162;29;20379;-53
2023/08/19 11:48:02;;;;;;;;;;;24.30;1.00;;;;;;4893091;29;19974;-54
2023/08/19 11:50:34;;;;;;;;;;;24.30;1.00;;;;;;4912707;29;19953;-54
2023/08/19 11:53:02;;;;;;;;;;;24.30;1.00;;;;;;4912090;29;19923;-53
2023/08/19 11:55:29;;;;;;;;;;;24.30;1.00;;;;;;4915862;29;19951;-54
2023/08/19 11:57:56;;;;;;;;;;;24.30;1.00;;;;;;4916048;29;19923;-56
2023/08/19 12:00:24;;;;;;;;;;;24.30;1.00;;;;;;4916002;29;20021;-56
2023/08/19 12:02:51;;;;;;;;;;;24.30;1.00;;;;;;4902535;29;19935;-58
2023/08/19 12:05:22;;;;;;;;;;;24.30;1.00;;;;;;4901863;29;19931;-54
2023/08/19 12:07:49;;;;;;;;;;;24.30;1.00;;;;;;4912009;29;20017;-57
2023/08/19 12:10:16;;;;;;;;;;;24.30;1.00;;;;;;4915666;29;20359;-57
2023/08/19 12:12:56;;;;;;;;;;;24.30;1.00;;;;;;5124676;23;19922;-55
2023/08/19 12:15:24;;;;;;;;;;;24.30;1.00;;;;;;4927946;29;19978;-51
2023/08/19 12:17:50;;;;;;;;;;;24.40;1.00;;;;;;4918871;29;19971;-57
2023/08/19 12:20:17;;;;;;;;;;;24.40;1.00;;;;;;4916159;29;19955;-53
2023/08/19 12:22:45;;;;;;;;;;;24.40;1.00;;;;;;4918527;29;19923;-56
2023/08/19 12:25:13;;;;;;;;;;;24.40;1.00;;;;;;4912667;29;19951;-58
2023/08/19 12:27:40;;;;;;;;;;;24.40;1.00;;;;;;4918452;29;19945;-54
2023/08/19 12:30:07;;;;;;;;;;;24.40;1.00;;;;;;4918716;29;19923;-57
2023/08/19 12:32:34;;;;;;;;;;;24.40;1.00;;;;;;4918685;29;19954;-51
2023/08/19 12:35:04;;;;;;;;;;;24.40;1.00;;;;;;4918634;29;19965;-55
2023/08/19 12:37:32;;;;;;;;;;;24.40;1.00;;;;;;4918452;29;20021;-55
2023/08/19 12:39:58;;;;;;;;;;;24.40;1.00;;;;;;4918498;29;19922;-55
2023/08/19 12:42:25;;;;;;;;;;;24.40;1.00;;;;;;4941193;23;20021;-55
2023/08/19 12:45:12;;;;;;;;;;;24.40;1.00;;;;;;4926274;29;19927;-53
2023/08/19 12:47:40;;;;;;;;;;;24.40;1.00;;;;;;4918707;29;19929;-55
2023/08/19 12:50:07;;;;;;;;;;;24.40;1.00;;;;;;4901322;29;19923;-57
2023/08/19 12:52:35;;;;;;;;;;;24.40;1.00;;;;;;4918044;29;20320;-56
2023/08/19 12:55:05;;;;;;;;;;;24.40;1.00;;;;;;4918184;29;20399;-57
2023/08/19 12:57:32;;;;;;;;;;;24.40;1.00;;;;;;4918248;29;19930;-54
2023/08/19 12:59:59;;;;;;;;;;;24.40;1.00;;;;;;4917980;29;19923;-54
2023/08/19 13:02:26;;;;;;;;;;;24.40;1.00;;;;;;4917984;29;19955;-55
2023/08/19 13:04:56;;;;;;;;;;;24.40;1.00;;;;;;4918032;29;19923;-54
2023/08/19 13:07:23;;;;;;;;;;;24.30;1.00;;;;;;4917973;29;20446;-50
2023/08/19 13:09:51;;;;;;;;;;;24.40;1.00;;;;;;4901061;29;19927;-55
2023/08/19 13:15:15;;;;;;;;;;;24.40;1.00;;;;;;5255727;23;19966;-55
2023/08/19 13:17:42;;;;;;;;;;;24.40;1.00;;;;;;4896889;29;20321;-55
2023/08/19 13:20:09;;;;;;;;;;;24.30;1.00;;;;;;4898866;29;20448;-54
2023/08/19 13:22:36;;;;;;;;;;;24.40;1.00;;;;;;4898637;29;19923;-54
2023/08/19 13:25:06;;;;;;;;;;;24.30;1.00;;;;;;4898861;29;20012;-53
2023/08/19 13:27:33;;;;;;;;;;;24.40;1.00;;;;;;4898264;29;20288;-56
2023/08/19 13:30:00;;;;;;;;;;;24.40;1.00;;;;;;4899201;29;19923;-55
2023/08/19 13:32:29;;;;;;;;;;;24.40;1.00;;;;;;4898722;29;20022;-54
2023/08/19 13:34:56;;;;;;;;;;;24.40;1.00;;;;;;4895550;29;20010;-54
2023/08/19 13:37:23;;;;;;;;;;;24.40;1.00;;;;;;4898665;29;19923;-56
2023/08/19 13:39:49;;;;;;;;;;;24.30;1.00;;;;;;4898796;29;19929;-52
2023/08/19 13:42:16;;;;;;;;;;;24.30;1.00;;;;;;4898509;29;19951;-57
2023/08/19 13:44:45;;;;;;;;;;;24.30;1.00;;;;;;4899769;29;19923;-57
2023/08/19 13:47:25;;;;;;;;;;;24.30;1.00;;;;;;4896082;29;20066;-56
2023/08/19 13:49:52;;;;;;;;;;;24.30;1.00;;;;;;4899021;29;19927;-53
2023/08/19 13:52:35;;;;;;;;;;;24.30;1.00;;;;;;4899223;29;20334;-55
2023/08/19 13:55:02;;;;;;;;;;;24.30;1.00;;;;;;4899077;29;19934;-55
2023/08/19 13:57:29;;;;;;;;;;;24.30;1.00;;;;;;4900677;29;19927;-56
2023/08/19 13:59:56;;;;;;;;;;;24.30;1.00;;;;;;4903481;29;19931;-57
2023/08/19 14:02:23;;;;;;;;;;;24.30;1.00;;;;;;4899233;29;19924;-55
2023/08/19 14:04:49;;;;;;;;;;;24.30;1.00;;;;;;4898185;29;19992;-55
2023/08/19 14:07:16;;;;;;;;;;;24.30;1.00;;;;;;4898022;29;19929;-56
2023/08/19 14:09:43;;;;;;;;;;;24.30;1.00;;;;;;4897912;29;19945;-57
2023/08/19 14:12:09;;;;;;;;;;;24.30;1.00;;;;;;4897876;29;19985;-53
2023/08/19 14:14:37;;;;;;;;;;;24.30;1.00;;;;;;4898072;29;19923;-55
2023/08/19 14:17:05;;;;;;;;;;;24.30;1.00;;;;;;5254428;23;19979;-55
2023/08/19 14:19:32;;;;;;;;;;;24.30;1.00;;;;;;4916238;29;20391;-56
2023/08/19 14:21:58;;;;;;;;;;;24.40;1.00;;;;;;4899587;29;19923;-53
2023/08/19 14:24:25;;;;;;;;;;;24.30;1.00;;;;;;4916948;29;19962;-55
2023/08/19 14:26:52;;;;;;;;;;;24.30;1.00;;;;;;4916309;29;19930;-55
2023/08/19 14:29:19;;;;;;;;;;;24.40;1.00;;;;;;4913436;29;19923;-57
2023/08/19 14:31:45;;;;;;;;;;;24.30;1.00;;;;;;4916470;29;19930;-54
2023/08/19 14:34:12;;;;;;;;;;;24.40;1.00;;;;;;4909505;29;20403;-55
2023/08/19 14:36:39;;;;;;;;;;;24.40;1.00;;;;;;4914356;29;19923;-55
2023/08/19 14:39:06;;;;;;;;;;;24.30;1.00;;;;;;4915498;29;20415;-56
2023/08/19 14:41:32;;;;;;;;;;;24.30;1.00;;;;;;4916230;29;20387;-56
2023/08/19 14:43:59;;;;;;;;;;;24.40;1.00;;;;;;4916166;29;19953;-58
2023/08/19 14:46:26;;;;;;;;;;;24.40;1.00;;;;;;4916121;29;19923;-56
2023/08/19 14:48:53;;;;;;;;;;;24.40;1.00;;;;;;5168175;23;19922;-51
2023/08/19 14:51:21;;;;;;;;;;;24.40;1.00;;;;;;4895783;29;20016;-52